createdAt,value
2017-10-20T00:00:21.962Z,96.87
2017-10-20T00:02:49.779Z,96.89
2017-10-20T00:05:17.369Z,96.87
2017-10-20T00:07:44.954Z,96.85
2017-10-20T00:10:12.521Z,96.68
2017-10-20T00:12:40.224Z,96.73
2017-10-20T00:15:07.796Z,96.69
2017-10-20T00:17:35.418Z,96.72
2017-10-20T00:20:02.986Z,96.60
2017-10-20T00:22:30.574Z,96.48
2017-10-20T00:24:58.166Z,96.34
2017-10-20T00:27:25.742Z,96.30
2017-10-20T00:29:53.328Z,96.17
2017-10-20T00:32:20.869Z,96.10
2017-10-20T00:34:48.488Z,96.12
2017-10-20T00:37:16.170Z,95.93
2017-10-20T00:39:43.765Z,95.79
2017-10-20T00:42:11.354Z,95.76
2017-10-20T00:44:39.214Z,95.72
2017-10-20T00:47:06.778Z,95.61
2017-10-20T00:49:34.324Z,95.68
2017-10-20T00:52:01.903Z,95.74
2017-10-20T00:54:29.496Z,95.81
2017-10-20T00:56:57.059Z,95.61
2017-10-20T00:59:24.668Z,95.50
2017-10-20T01:01:52.256Z,95.25
2017-10-20T01:04:20.458Z,95.20
2017-10-20T01:06:48.240Z,95.20
2017-10-20T01:09:15.820Z,95.20
2017-10-20T01:11:43.743Z,95.25
2017-10-20T01:14:11.338Z,95.26
2017-10-20T01:16:38.933Z,95.21
2017-10-20T01:19:06.619Z,95.17
2017-10-20T01:21:34.175Z,95.21
2017-10-20T01:24:01.784Z,95.27
2017-10-20T01:26:29.363Z,95.39
2017-10-20T01:28:56.953Z,95.22
2017-10-20T01:31:24.530Z,95.22
2017-10-20T01:33:53.767Z,95.48
2017-10-20T01:36:21.341Z,95.48
2017-10-20T01:38:48.908Z,95.43
2017-10-20T01:41:16.505Z,95.21
2017-10-20T01:43:44.197Z,95.18
2017-10-20T01:46:11.799Z,95.19
2017-10-20T01:48:39.364Z,95.22
2017-10-20T01:51:06.980Z,94.98
2017-10-20T01:53:34.548Z,94.68
2017-10-20T01:56:02.609Z,94.56
2017-10-20T01:58:30.182Z,94.54
2017-10-20T02:00:57.729Z,94.51
2017-10-20T02:03:25.337Z,94.62
2017-10-20T02:05:52.903Z,94.74
2017-10-20T02:08:20.499Z,94.82
2017-10-20T02:10:48.132Z,94.88
2017-10-20T02:13:15.735Z,94.93
2017-10-20T02:15:43.315Z,95.00
2017-10-20T02:18:11.269Z,94.90
2017-10-20T02:20:38.833Z,94.88
2017-10-20T02:23:06.785Z,94.85
2017-10-20T02:25:34.490Z,94.82
2017-10-20T02:28:02.054Z,94.79
2017-10-20T02:30:29.645Z,95.02
2017-10-20T02:32:57.250Z,95.00
2017-10-20T02:35:24.859Z,95.09
2017-10-20T02:37:52.443Z,94.95
2017-10-20T02:40:20.021Z,94.67
2017-10-20T02:42:47.587Z,94.71
2017-10-20T02:45:15.172Z,95.05
2017-10-20T02:47:42.721Z,95.31
2017-10-20T02:50:10.727Z,95.52
2017-10-20T02:52:38.312Z,95.75
2017-10-20T02:55:05.871Z,95.68
2017-10-20T02:57:33.480Z,95.68
2017-10-20T03:00:01.052Z,95.93
2017-10-20T03:02:29.073Z,95.96
2017-10-20T03:04:56.655Z,95.96
2017-10-20T03:07:24.251Z,95.92
2017-10-20T03:09:51.833Z,95.96
2017-10-20T03:12:19.734Z,95.80
2017-10-20T03:14:47.292Z,95.87
2017-10-20T03:17:14.875Z,95.91
2017-10-20T03:19:42.477Z,95.99
2017-10-20T03:22:10.034Z,95.80
2017-10-20T03:24:37.599Z,95.28
2017-10-20T03:27:05.201Z,95.32
2017-10-20T03:29:32.806Z,95.38
2017-10-20T03:32:00.381Z,95.23
2017-10-20T03:34:27.981Z,95.17
2017-10-20T03:36:55.553Z,94.94
2017-10-20T03:39:23.399Z,94.96
2017-10-20T03:41:52.937Z,94.93
2017-10-20T03:44:20.496Z,94.66
2017-10-20T03:46:48.097Z,94.63
2017-10-20T03:49:16.083Z,94.45
2017-10-20T03:51:43.719Z,94.40
2017-10-20T03:54:11.275Z,94.28
2017-10-20T03:56:38.867Z,94.30
2017-10-20T03:59:06.466Z,94.41
2017-10-20T04:01:34.054Z,94.87
2017-10-20T04:04:01.612Z,95.02
2017-10-20T04:06:29.533Z,94.99
2017-10-20T04:08:57.091Z,94.85
2017-10-20T04:11:24.646Z,94.81
2017-10-20T04:13:52.237Z,94.82
2017-10-20T04:16:19.805Z,94.90
2017-10-20T04:18:48.617Z,95.04
2017-10-20T04:21:16.194Z,95.09
2017-10-20T04:23:43.811Z,95.25
2017-10-20T04:26:11.404Z,95.50
2017-10-20T04:28:39.003Z,95.49
2017-10-20T04:31:06.574Z,95.37
2017-10-20T04:33:34.200Z,95.40
2017-10-20T04:36:01.777Z,95.33
2017-10-20T04:38:30.533Z,95.22
2017-10-20T04:40:58.135Z,95.09
2017-10-20T04:43:25.703Z,95.06
2017-10-20T04:45:53.669Z,95.13
2017-10-20T04:48:21.239Z,95.07
2017-10-20T04:50:48.845Z,95.27
2017-10-20T04:53:16.424Z,94.96
2017-10-20T04:55:44.006Z,95.08
2017-10-20T04:58:11.598Z,95.34
2017-10-20T05:00:39.269Z,95.44
2017-10-20T05:03:06.853Z,95.27
2017-10-20T05:05:34.400Z,95.36
2017-10-20T05:08:02.009Z,95.57
2017-10-20T05:10:29.935Z,95.42
2017-10-20T05:12:57.525Z,95.35
2017-10-20T05:15:25.091Z,95.60
2017-10-20T05:17:53.191Z,95.63
2017-10-20T05:20:20.776Z,95.54
2017-10-20T05:22:48.331Z,95.65
2017-10-20T05:25:15.946Z,95.58
2017-10-20T05:27:43.555Z,95.65
2017-10-20T05:30:13.384Z,95.86
2017-10-20T05:32:40.958Z,95.86
2017-10-20T05:35:08.587Z,95.88
2017-10-20T05:37:36.164Z,95.73
2017-10-20T05:40:03.765Z,95.82
2017-10-20T05:42:31.352Z,95.90
2017-10-20T05:44:58.921Z,95.85
2017-10-20T05:47:26.483Z,95.55
2017-10-20T05:49:54.051Z,95.52
2017-10-20T05:52:21.628Z,95.75
2017-10-20T05:54:49.153Z,95.92
2017-10-20T05:57:16.818Z,96.07
2017-10-20T05:59:44.370Z,96.02
2017-10-20T06:02:12.248Z,95.71
2017-10-20T06:04:39.912Z,95.63
2017-10-20T06:07:07.567Z,95.74
2017-10-20T06:09:35.307Z,95.46
2017-10-20T06:12:02.883Z,95.06
2017-10-20T06:14:30.470Z,94.86
2017-10-20T06:16:58.207Z,94.94
2017-10-20T06:19:25.799Z,95.15
2017-10-20T06:21:53.385Z,95.05
2017-10-20T06:24:20.975Z,94.85
2017-10-20T06:26:48.578Z,94.69
2017-10-20T06:29:16.172Z,94.71
2017-10-20T06:31:43.772Z,94.47
2017-10-20T06:34:11.421Z,94.43
2017-10-20T06:36:39.251Z,94.30
2017-10-20T06:39:06.810Z,93.95
2017-10-20T06:41:34.764Z,93.79
2017-10-20T06:44:02.761Z,93.91
2017-10-20T06:46:30.370Z,93.96
2017-10-20T06:48:59.317Z,94.04
2017-10-20T06:51:26.894Z,93.90
2017-10-20T06:53:54.500Z,93.92
2017-10-20T06:56:22.083Z,93.96
2017-10-20T06:58:49.722Z,93.77
2017-10-20T07:01:17.298Z,93.70
2017-10-20T07:03:44.921Z,93.87
2017-10-20T07:06:12.481Z,93.96
2017-10-20T07:08:41.630Z,93.82
2017-10-20T07:11:09.194Z,93.77
2017-10-20T07:13:36.986Z,93.69
2017-10-20T07:16:04.556Z,93.71
2017-10-20T07:18:36.728Z,93.55
2017-10-20T07:21:06.233Z,93.41
2017-10-20T07:23:34.169Z,93.50
2017-10-20T07:26:01.791Z,93.42
2017-10-20T07:28:29.450Z,93.73
2017-10-20T07:30:57.028Z,94.02
2017-10-20T07:33:24.602Z,94.09
2017-10-20T07:35:52.218Z,94.00
2017-10-20T07:38:20.098Z,93.77
2017-10-20T07:40:47.773Z,93.81
2017-10-20T07:43:15.329Z,93.72
2017-10-20T07:45:42.890Z,93.56
2017-10-20T07:48:10.488Z,93.45
2017-10-20T07:50:38.047Z,93.40
2017-10-20T07:53:05.656Z,93.35
2017-10-20T07:55:33.250Z,93.23
2017-10-20T07:58:00.846Z,93.14
2017-10-20T08:00:28.464Z,93.07
2017-10-20T08:02:56.356Z,92.78
2017-10-20T08:05:24.039Z,93.24
2017-10-20T08:07:51.785Z,93.15
2017-10-20T08:10:19.382Z,92.81
2017-10-20T08:12:46.944Z,92.36
2017-10-20T08:15:14.542Z,92.09
2017-10-20T08:17:42.103Z,91.82
2017-10-20T08:20:09.732Z,91.84
2017-10-20T08:22:37.302Z,91.94
2017-10-20T08:25:04.887Z,91.69
2017-10-20T08:27:32.476Z,91.12
2017-10-20T08:30:00.074Z,91.10
2017-10-20T08:32:27.676Z,91.28
2017-10-20T08:34:55.264Z,90.63
2017-10-20T08:37:23.006Z,90.41
2017-10-20T08:39:50.568Z,90.16
2017-10-20T08:42:18.575Z,89.95
2017-10-20T08:44:46.156Z,89.59
2017-10-20T08:47:13.728Z,89.31
2017-10-20T08:49:41.324Z,89.33
2017-10-20T08:52:09.237Z,89.30
2017-10-20T08:54:36.839Z,88.89
2017-10-20T08:57:04.838Z,88.73
2017-10-20T08:59:32.422Z,88.46
2017-10-20T09:01:59.998Z,87.25
2017-10-20T09:04:27.594Z,87.21
2017-10-20T09:06:55.158Z,87.06
2017-10-20T09:09:22.738Z,86.88
2017-10-20T09:11:50.351Z,86.79
2017-10-20T09:14:17.937Z,85.97
2017-10-20T09:16:45.567Z,85.96
2017-10-20T09:19:13.124Z,85.59
2017-10-20T09:21:40.728Z,85.20
2017-10-20T09:24:08.306Z,84.25
2017-10-20T09:26:35.900Z,83.88
2017-10-20T09:29:03.467Z,84.27
2017-10-20T09:31:31.051Z,84.07
2017-10-20T09:33:58.659Z,83.96
2017-10-20T09:36:26.235Z,83.46
2017-10-20T09:38:53.849Z,83.49
2017-10-20T09:41:21.545Z,83.22
2017-10-20T09:43:49.167Z,82.93
2017-10-20T09:46:16.745Z,82.33
2017-10-20T09:48:44.341Z,82.33
2017-10-20T09:51:11.923Z,82.10
2017-10-20T09:53:39.581Z,82.69
2017-10-20T09:56:07.147Z,81.89
2017-10-20T09:58:34.721Z,80.81
2017-10-20T10:01:02.451Z,80.76
2017-10-20T10:03:30.021Z,80.36
2017-10-20T10:05:57.614Z,79.04
2017-10-20T10:08:25.205Z,80.15
2017-10-20T10:10:52.807Z,79.82
2017-10-20T10:13:20.462Z,80.50
2017-10-20T10:15:48.072Z,80.08
2017-10-20T10:18:15.664Z,79.12
2017-10-20T10:20:43.301Z,78.99
2017-10-20T10:23:10.875Z,78.24
2017-10-20T10:25:38.853Z,78.42
2017-10-20T10:28:06.457Z,77.85
2017-10-20T10:30:34.047Z,77.26
2017-10-20T10:33:01.655Z,76.31
2017-10-20T10:35:29.286Z,76.59
2017-10-20T10:37:56.870Z,75.93
2017-10-20T10:40:24.458Z,76.16
2017-10-20T10:42:52.125Z,74.74
2017-10-20T10:45:19.699Z,75.07
2017-10-20T10:47:47.292Z,74.23
2017-10-20T10:50:14.862Z,74.67
2017-10-20T10:52:42.446Z,74.54
2017-10-20T10:55:10.072Z,73.42
2017-10-20T10:57:37.647Z,71.40
2017-10-20T11:00:05.301Z,71.61
2017-10-20T11:02:33.264Z,71.55
2017-10-20T11:05:06.564Z,70.80
2017-10-20T11:07:46.032Z,71.25
2017-10-20T11:10:25.498Z,70.77
2017-10-20T11:13:08.824Z,69.90
2017-10-20T11:15:36.849Z,68.80
2017-10-20T11:18:04.618Z,69.08
2017-10-20T11:20:32.208Z,66.86
2017-10-20T11:22:59.781Z,67.39
2017-10-20T11:25:27.374Z,68.12
2017-10-20T11:27:54.976Z,67.98
2017-10-20T11:30:22.603Z,67.48
2017-10-20T11:32:50.180Z,65.41
2017-10-20T11:35:17.769Z,65.92
2017-10-20T11:37:45.370Z,64.52
2017-10-20T11:40:12.930Z,64.76
2017-10-20T11:42:40.531Z,65.17
2017-10-20T11:45:08.118Z,65.88
2017-10-20T11:47:35.747Z,64.80
2017-10-20T11:50:03.324Z,64.91
2017-10-20T11:52:30.920Z,65.84
2017-10-20T11:54:58.512Z,65.47
2017-10-20T11:57:26.224Z,64.55
2017-10-20T11:59:53.824Z,65.19
2017-10-20T12:02:21.382Z,64.29
2017-10-20T12:04:49.002Z,65.38
2017-10-20T12:07:16.585Z,63.04
2017-10-20T12:09:44.187Z,64.61
2017-10-20T12:12:11.756Z,64.00
2017-10-20T12:14:39.342Z,65.34
2017-10-20T12:17:06.918Z,65.82
2017-10-20T12:19:34.707Z,65.61
2017-10-20T12:22:02.402Z,64.22
2017-10-20T12:24:29.972Z,65.10
2017-10-20T12:26:57.738Z,64.64
2017-10-20T12:29:27.375Z,65.89
2017-10-20T12:31:55.058Z,64.48
2017-10-20T12:34:22.772Z,64.45
2017-10-20T12:36:50.730Z,64.09
2017-10-20T12:39:18.328Z,64.75
2017-10-20T12:41:45.888Z,64.95
2017-10-20T12:44:13.518Z,62.32
2017-10-20T12:46:41.112Z,64.19
2017-10-20T12:49:09.189Z,64.10
2017-10-20T12:51:36.785Z,62.51
2017-10-20T12:54:04.422Z,63.33
2017-10-20T12:56:32.014Z,64.01
2017-10-20T12:58:59.653Z,63.23
2017-10-20T13:01:27.240Z,63.40
2017-10-20T13:03:55.138Z,64.02
2017-10-20T13:06:22.790Z,62.67
2017-10-20T13:08:50.394Z,62.95
2017-10-20T13:11:18.015Z,62.96
2017-10-20T13:13:45.678Z,61.19
2017-10-20T13:16:13.280Z,62.07
2017-10-20T13:18:40.876Z,62.34
2017-10-20T13:21:09.089Z,61.80
2017-10-20T13:23:37.322Z,61.30
2017-10-20T13:26:05.132Z,60.19
2017-10-20T13:28:32.800Z,59.37
2017-10-20T13:31:03.501Z,58.64
2017-10-20T13:33:31.592Z,58.83
2017-10-20T13:35:59.179Z,58.99
2017-10-20T13:38:26.767Z,59.38
2017-10-20T13:40:55.122Z,57.88
2017-10-20T13:43:22.737Z,57.70
2017-10-20T13:45:50.341Z,59.41
2017-10-20T13:48:17.942Z,59.02
2017-10-20T13:50:45.672Z,59.15
2017-10-20T13:53:13.272Z,59.48
2017-10-20T13:55:40.854Z,60.53
2017-10-20T13:58:08.820Z,59.39
2017-10-20T14:00:36.404Z,58.53
2017-10-20T14:03:04.141Z,57.55
2017-10-20T14:05:31.730Z,59.16
2017-10-20T14:07:59.405Z,59.78
2017-10-20T14:10:27.395Z,59.61
2017-10-20T14:12:54.974Z,59.67
2017-10-20T14:15:22.603Z,60.44
2017-10-20T14:17:50.292Z,60.74
2017-10-20T14:20:19.543Z,59.40
2017-10-20T14:22:47.195Z,60.39
2017-10-20T14:25:14.812Z,59.93
2017-10-20T14:27:42.376Z,59.11
2017-10-20T14:30:09.989Z,59.35
2017-10-20T14:32:38.217Z,59.25
2017-10-20T14:35:06.122Z,58.45
2017-10-20T14:37:34.077Z,58.46
2017-10-20T14:40:01.679Z,57.47
2017-10-20T14:42:29.287Z,56.41
2017-10-20T14:44:57.201Z,55.64
2017-10-20T14:47:24.878Z,55.53
2017-10-20T14:49:52.540Z,56.77
2017-10-20T14:52:20.169Z,56.51
2017-10-20T14:54:50.921Z,56.71
2017-10-20T14:57:18.498Z,57.43
2017-10-20T14:59:46.533Z,57.57
2017-10-20T15:02:14.801Z,56.88
2017-10-20T15:04:42.499Z,55.58
2017-10-20T15:07:10.553Z,55.18
2017-10-20T15:09:38.225Z,55.27
2017-10-20T15:12:07.025Z,55.99
2017-10-20T15:14:34.635Z,55.67
2017-10-20T15:17:02.536Z,56.42
2017-10-20T15:19:30.211Z,57.11
2017-10-20T15:21:57.805Z,57.02
2017-10-20T15:24:25.399Z,57.80
2017-10-20T15:26:52.984Z,58.01
2017-10-20T15:29:20.557Z,58.86
2017-10-20T15:31:48.140Z,59.08
2017-10-20T15:34:15.721Z,59.83
2017-10-20T15:36:43.309Z,59.72
2017-10-20T15:39:10.912Z,60.38
2017-10-20T15:41:38.631Z,61.29
2017-10-20T15:44:06.203Z,62.08
2017-10-20T15:46:33.790Z,62.24
2017-10-20T15:49:02.379Z,62.66
2017-10-20T15:51:30.007Z,63.35
2017-10-20T15:53:57.630Z,63.53
2017-10-20T15:56:25.261Z,64.24
2017-10-20T15:58:52.834Z,65.03
2017-10-20T16:01:20.420Z,65.53
2017-10-20T16:03:48.428Z,66.03
2017-10-20T16:06:16.030Z,66.43
2017-10-20T16:08:43.617Z,67.22
2017-10-20T16:11:11.256Z,68.20
2017-10-20T16:13:38.902Z,68.07
2017-10-20T16:16:06.586Z,68.51
2017-10-20T16:18:34.187Z,69.17
2017-10-20T16:21:01.786Z,69.53
2017-10-20T16:23:29.457Z,69.88
2017-10-20T16:25:57.069Z,70.01
2017-10-20T16:28:24.689Z,70.77
2017-10-20T16:30:52.630Z,71.17
2017-10-20T16:33:20.249Z,71.46
2017-10-20T16:35:48.222Z,71.77
2017-10-20T16:38:15.956Z,72.49
2017-10-20T16:40:43.559Z,72.53
2017-10-20T16:43:11.195Z,72.70
2017-10-20T16:45:38.794Z,73.25
2017-10-20T16:48:06.396Z,72.98
2017-10-20T16:50:34.595Z,73.04
2017-10-20T16:53:02.232Z,73.28
2017-10-20T16:55:29.817Z,73.65
2017-10-20T16:57:57.404Z,74.11
2017-10-20T17:00:25.401Z,74.59
2017-10-20T17:02:53.024Z,74.90
2017-10-20T17:05:21.458Z,75.59
2017-10-20T17:07:49.030Z,76.07
2017-10-20T17:10:16.640Z,76.43
2017-10-20T17:12:45.680Z,76.77
2017-10-20T17:15:13.299Z,76.94
2017-10-20T17:17:41.058Z,77.31
2017-10-20T17:20:08.763Z,78.07
2017-10-20T17:22:36.800Z,78.64
2017-10-20T17:25:04.390Z,78.71
2017-10-20T17:27:32.033Z,78.60
2017-10-20T17:29:59.616Z,78.82
2017-10-20T17:32:27.224Z,78.36
2017-10-20T17:34:54.871Z,77.90
2017-10-20T17:37:22.498Z,74.71
2017-10-20T17:39:50.747Z,73.22
2017-10-20T17:42:18.728Z,72.29
2017-10-20T17:44:46.333Z,71.61
2017-10-20T17:47:14.686Z,70.75
2017-10-20T17:49:42.650Z,69.75
2017-10-20T17:52:10.274Z,68.88
2017-10-20T17:54:38.620Z,67.54
2017-10-20T17:57:08.387Z,66.58
2017-10-20T17:59:36.502Z,66.03
2017-10-20T18:02:04.227Z,65.29
2017-10-20T18:04:32.485Z,65.03
2017-10-20T18:07:00.310Z,64.73
2017-10-20T18:09:28.166Z,64.84
2017-10-20T18:11:55.870Z,64.83
2017-10-20T18:14:23.607Z,64.49
2017-10-20T18:16:51.635Z,63.65
2017-10-20T18:19:19.332Z,63.74
2017-10-20T18:21:47.136Z,63.55
2017-10-20T18:24:15.610Z,63.37
2017-10-20T18:26:43.772Z,63.75
2017-10-20T18:29:11.538Z,62.89
2017-10-20T18:31:39.422Z,62.65
2017-10-20T18:34:07.217Z,62.84
2017-10-20T18:36:35.076Z,62.95
2017-10-20T18:39:03.291Z,63.19
2017-10-20T18:41:31.629Z,63.34
2017-10-20T18:44:01.310Z,62.99
2017-10-20T18:46:29.318Z,63.52
2017-10-20T18:48:58.748Z,63.57
2017-10-20T18:51:30.214Z,63.69
2017-10-20T18:53:58.545Z,63.87
2017-10-20T18:56:27.015Z,64.00
2017-10-20T18:58:54.852Z,64.43
2017-10-20T19:01:24.376Z,64.31
2017-10-20T19:03:53.040Z,64.59
2017-10-20T19:06:21.566Z,65.01
2017-10-20T19:08:52.662Z,64.71
2017-10-20T19:11:20.569Z,65.33
2017-10-20T19:13:49.572Z,65.42
2017-10-20T19:16:18.056Z,65.34
2017-10-20T19:18:47.258Z,65.54
2017-10-20T19:21:15.557Z,65.72
2017-10-20T19:23:44.817Z,66.04
2017-10-20T19:26:16.500Z,66.22
2017-10-20T19:28:45.178Z,66.35
2017-10-20T19:31:13.441Z,66.63
2017-10-20T19:33:43.881Z,66.48
2017-10-20T19:36:12.177Z,66.97
2017-10-20T19:38:41.649Z,67.36
2017-10-20T19:41:09.422Z,67.29
2017-10-20T19:43:39.020Z,67.43
2017-10-20T19:46:06.886Z,67.67
2017-10-20T19:48:36.140Z,67.95
2017-10-20T19:51:04.174Z,68.48
2017-10-20T19:53:33.365Z,68.62
2017-10-20T19:56:01.926Z,68.95
2017-10-20T19:58:30.860Z,69.30
2017-10-20T20:00:58.707Z,69.70
2017-10-20T20:03:28.005Z,70.01
2017-10-20T20:05:58.699Z,70.31
2017-10-20T20:08:26.451Z,70.56
2017-10-20T20:10:54.475Z,70.80
2017-10-20T20:13:22.842Z,71.15
2017-10-20T20:15:50.612Z,71.39
2017-10-20T20:18:18.691Z,71.63
2017-10-20T20:20:46.659Z,71.82
2017-10-20T20:23:14.464Z,71.93
2017-10-20T20:25:42.286Z,72.36
2017-10-20T20:28:10.229Z,72.47
2017-10-20T20:30:57.283Z,72.61
2017-10-20T20:33:29.755Z,72.86
2017-10-20T20:35:59.054Z,73.11
2017-10-20T20:38:27.328Z,73.25
2017-10-20T20:40:55.296Z,73.44
2017-10-20T20:43:24.248Z,73.60
2017-10-20T20:45:52.163Z,73.68
2017-10-20T20:48:21.347Z,73.93
2017-10-20T20:50:49.557Z,74.05
2017-10-20T20:53:18.902Z,74.18
2017-10-20T20:55:46.805Z,74.36
2017-10-20T20:58:14.502Z,74.55
2017-10-20T21:00:43.498Z,74.72
2017-10-20T21:03:11.541Z,74.85
2017-10-20T21:05:39.213Z,75.03
2017-10-20T21:08:06.820Z,75.14
2017-10-20T21:10:34.414Z,75.19
2017-10-20T21:13:02.053Z,75.22
2017-10-20T21:15:29.689Z,75.20
2017-10-20T21:17:57.266Z,75.43
2017-10-20T21:20:24.877Z,75.50
2017-10-20T21:22:53.712Z,75.59
2017-10-20T21:25:21.795Z,75.73
2017-10-20T21:27:49.380Z,75.67
2017-10-20T21:30:16.966Z,75.72
2017-10-20T21:32:44.566Z,75.80
2017-10-20T21:35:12.153Z,75.94
2017-10-20T21:37:39.759Z,76.07
2017-10-20T21:40:07.312Z,76.11
2017-10-20T21:42:34.920Z,76.12
2017-10-20T21:45:02.643Z,76.04
2017-10-20T21:47:30.272Z,76.02
2017-10-20T21:49:58.214Z,76.22
2017-10-20T21:52:26.198Z,76.19
2017-10-20T21:54:54.012Z,76.30
2017-10-20T21:57:22.036Z,76.37
2017-10-20T21:59:49.643Z,76.43
2017-10-20T22:02:17.211Z,77.13
2017-10-20T22:04:44.817Z,77.48
2017-10-20T22:07:12.449Z,77.86
2017-10-20T22:09:40.127Z,78.19
2017-10-20T22:12:07.729Z,78.36
2017-10-20T22:14:35.318Z,78.43
2017-10-20T22:17:02.940Z,78.66
2017-10-20T22:19:30.544Z,78.65
2017-10-20T22:21:58.287Z,78.71
2017-10-20T22:24:26.302Z,78.77
2017-10-20T22:26:53.913Z,79.01
2017-10-20T22:29:21.541Z,79.16
2017-10-20T22:31:49.948Z,79.38
2017-10-20T22:34:17.561Z,79.11
2017-10-20T22:36:45.209Z,79.06
2017-10-20T22:39:12.805Z,79.20
2017-10-20T22:41:40.767Z,79.15
2017-10-20T22:44:08.751Z,79.25
2017-10-20T22:46:36.313Z,79.16
2017-10-20T22:49:03.886Z,78.98
2017-10-20T22:51:31.839Z,78.91
2017-10-20T22:53:59.408Z,78.92
2017-10-20T22:56:27.007Z,78.93
2017-10-20T22:58:55.199Z,78.95
2017-10-20T23:01:22.805Z,78.92
2017-10-20T23:03:50.377Z,78.85
2017-10-20T23:06:17.953Z,78.82
2017-10-20T23:08:45.573Z,79.05
2017-10-20T23:11:13.176Z,79.34
2017-10-20T23:13:40.771Z,79.29
2017-10-20T23:16:08.341Z,79.22
2017-10-20T23:18:35.962Z,79.26
2017-10-20T23:21:03.550Z,79.28
2017-10-20T23:23:32.580Z,79.46
2017-10-20T23:26:00.216Z,79.46
2017-10-20T23:28:29.670Z,79.60
2017-10-20T23:30:57.284Z,79.68
2017-10-20T23:33:25.275Z,80.03
2017-10-20T23:35:54.209Z,80.06
2017-10-20T23:38:21.791Z,79.90
2017-10-20T23:40:49.783Z,79.89
2017-10-20T23:43:18.855Z,79.92
2017-10-20T23:45:46.835Z,80.09
2017-10-20T23:48:15.652Z,80.07
2017-10-20T23:50:43.263Z,80.31
2017-10-20T23:53:10.895Z,80.23
2017-10-20T23:55:38.469Z,80.18
2017-10-20T23:58:06.243Z,80.28
